createdAt,value
2018-09-15T00:00:47.466Z,13.33
2018-09-15T00:05:52.152Z,12.70
2018-09-15T00:10:56.737Z,13.47
2018-09-15T00:16:01.207Z,13.47
2018-09-15T00:26:18.995Z,13.27
2018-09-15T00:31:23.859Z,14.07
2018-09-15T00:36:29.205Z,14.10
2018-09-15T00:41:33.709Z,13.97
2018-09-15T00:46:38.251Z,14.20
2018-09-15T00:51:42.996Z,15.30
2018-09-15T00:56:47.733Z,15.03
2018-09-15T01:01:53.893Z,14.63
2018-09-15T01:06:58.550Z,15.07
2018-09-15T01:12:05.557Z,14.67
2018-09-15T01:17:11.040Z,15.53
2018-09-15T01:22:15.945Z,15.07
2018-09-15T01:27:20.959Z,14.60
2018-09-15T01:32:28.515Z,14.00
2018-09-15T01:37:35.959Z,14.67
2018-09-15T01:42:40.686Z,14.53
2018-09-15T01:47:46.110Z,14.47
2018-09-15T01:52:50.611Z,15.13
2018-09-15T01:57:56.618Z,15.70
2018-09-15T02:03:03.689Z,14.43
2018-09-15T02:08:08.221Z,13.90
2018-09-15T02:13:13.643Z,14.47
2018-09-15T02:18:19.197Z,14.20
2018-09-15T02:23:23.816Z,13.10
2018-09-15T02:28:28.568Z,13.03
2018-09-15T02:33:33.801Z,12.90
2018-09-15T02:38:38.684Z,12.50
2018-09-15T02:43:43.722Z,12.03
2018-09-15T02:54:20.051Z,12.60
2018-09-15T02:59:25.179Z,12.20
2018-09-15T03:04:29.805Z,11.33
2018-09-15T03:09:34.606Z,12.07
2018-09-15T03:14:39.454Z,11.50
2018-09-15T03:19:44.033Z,11.07
2018-09-15T03:24:49.163Z,10.83
2018-09-15T03:29:53.730Z,9.83
2018-09-15T03:34:59.023Z,10.03
2018-09-15T03:40:04.023Z,9.33
2018-09-15T03:45:09.120Z,9.53
2018-09-15T03:50:14.311Z,9.50
2018-09-15T03:55:18.906Z,10.77
2018-09-15T04:00:23.967Z,10.17
2018-09-15T04:05:28.711Z,10.23
2018-09-15T04:10:33.450Z,10.40
2018-09-15T04:15:38.293Z,11.13
2018-09-15T04:20:42.888Z,11.43
2018-09-15T04:25:48.148Z,11.23
2018-09-15T04:30:53.281Z,10.67
2018-09-15T04:35:58.085Z,11.07
2018-09-15T04:41:03.087Z,11.17
2018-09-15T04:46:08.014Z,10.60
2018-09-15T04:51:12.739Z,11.63
2018-09-15T04:56:17.302Z,10.47
2018-09-15T05:01:22.266Z,10.47
2018-09-15T05:06:26.949Z,10.20
2018-09-15T05:11:31.734Z,11.33
2018-09-15T05:16:36.492Z,10.33
2018-09-15T05:21:41.267Z,8.97
2018-09-15T05:26:46.327Z,9.73
2018-09-15T05:31:51.174Z,9.43
2018-09-15T05:36:55.855Z,9.80
2018-09-15T05:42:00.478Z,9.77
2018-09-15T05:47:05.038Z,8.97
2018-09-15T05:52:09.727Z,8.83
2018-09-15T05:57:14.110Z,8.77
2018-09-15T06:02:19.046Z,8.07
2018-09-15T06:07:23.641Z,8.67
2018-09-15T06:12:28.192Z,8.27
2018-09-15T06:17:32.951Z,8.03
2018-09-15T06:22:37.502Z,7.60
2018-09-15T06:27:42.060Z,8.00
2018-09-15T06:32:46.700Z,6.77
2018-09-15T06:37:51.350Z,6.97
2018-09-15T06:42:56.109Z,6.10
2018-09-15T06:48:00.599Z,6.20
2018-09-15T06:53:05.238Z,5.97
2018-09-15T06:58:10.081Z,5.70
2018-09-15T07:03:15.514Z,5.40
2018-09-15T07:08:20.754Z,4.80
2018-09-15T07:13:25.335Z,4.63
2018-09-15T07:18:29.838Z,5.03
2018-09-15T07:23:34.583Z,4.13
2018-09-15T07:28:39.132Z,4.40
2018-09-15T07:33:43.592Z,4.17
2018-09-15T07:38:48.098Z,3.97
2018-09-15T07:43:52.723Z,3.80
2018-09-15T07:48:57.485Z,3.83
2018-09-15T07:55:27.007Z,4.80
2018-09-15T08:00:31.816Z,4.03
2018-09-15T08:05:36.424Z,4.50
2018-09-15T08:10:42.043Z,4.73
2018-09-15T08:15:46.528Z,3.90
2018-09-15T08:20:51.522Z,4.13
2018-09-15T08:25:55.864Z,4.30
2018-09-15T08:31:00.321Z,4.00
2018-09-15T08:36:04.845Z,3.50
2018-09-15T08:41:09.370Z,4.13
2018-09-15T08:46:14.297Z,4.27
2018-09-15T08:51:18.872Z,4.30
2018-09-15T08:56:23.603Z,4.07
2018-09-15T09:01:28.181Z,3.67
2018-09-15T09:06:32.869Z,4.23
2018-09-15T09:11:37.458Z,3.30
2018-09-15T09:16:42.100Z,3.67
2018-09-15T09:21:47.597Z,3.10
2018-09-15T09:26:52.669Z,2.90
2018-09-15T09:31:57.374Z,3.00
2018-09-15T09:37:02.176Z,3.03
2018-09-15T09:42:06.964Z,3.07
2018-09-15T09:47:11.650Z,2.43
2018-09-15T09:52:16.177Z,3.20
2018-09-15T09:57:20.734Z,2.77
2018-09-15T10:02:25.781Z,2.67
2018-09-15T10:07:30.365Z,2.50
2018-09-15T10:12:35.135Z,2.17
2018-09-15T10:17:40.395Z,2.10
2018-09-15T10:22:45.120Z,2.20
2018-09-15T10:27:49.671Z,2.37
2018-09-15T10:32:54.149Z,2.20
2018-09-15T10:37:58.834Z,2.20
2018-09-15T10:43:03.299Z,2.30
2018-09-15T10:48:07.963Z,2.00
2018-09-15T10:53:12.488Z,2.13
2018-09-15T10:58:16.996Z,2.50
2018-09-15T11:03:22.416Z,2.20
2018-09-15T11:08:27.125Z,2.03
2018-09-15T11:13:31.768Z,1.60
2018-09-15T11:18:36.539Z,1.73
2018-09-15T11:23:41.602Z,2.20
2018-09-15T11:28:46.643Z,2.30
2018-09-15T11:33:52.149Z,2.07
2018-09-15T11:38:57.969Z,2.20
2018-09-15T11:44:02.415Z,2.60
2018-09-15T11:49:07.140Z,3.00
2018-09-15T11:54:13.087Z,2.27
2018-09-15T11:59:17.848Z,2.60
2018-09-15T12:04:22.493Z,3.40
2018-09-15T12:09:27.124Z,2.83
2018-09-15T12:14:32.427Z,2.73
2018-09-15T12:19:37.140Z,2.80
2018-09-15T12:24:41.780Z,3.13
2018-09-15T12:29:46.419Z,2.70
2018-09-15T12:34:50.821Z,2.63
2018-09-15T12:39:55.574Z,3.80
2018-09-15T12:45:00.426Z,4.90
2018-09-15T12:50:05.016Z,4.67
2018-09-15T12:55:09.681Z,5.00
2018-09-15T13:00:14.344Z,4.87
2018-09-15T13:05:19.215Z,5.63
2018-09-15T13:10:23.766Z,5.93
2018-09-15T13:15:28.202Z,5.90
2018-09-15T13:20:33.084Z,5.30
2018-09-15T13:25:37.730Z,6.67
2018-09-15T13:30:42.452Z,9.20
2018-09-15T13:35:47.137Z,8.57
2018-09-15T13:40:51.655Z,9.33
2018-09-15T13:45:56.268Z,10.30
2018-09-15T13:51:00.713Z,8.80
2018-09-15T13:56:05.822Z,8.30
2018-09-15T14:01:10.440Z,6.90
2018-09-15T14:06:14.997Z,7.43
2018-09-15T14:11:19.713Z,7.70
2018-09-15T14:16:24.410Z,6.17
2018-09-15T14:21:28.932Z,5.50
2018-09-15T14:26:33.322Z,5.90
2018-09-15T14:31:37.884Z,5.03
2018-09-15T14:36:42.510Z,5.00
2018-09-15T14:41:47.917Z,5.97
2018-09-15T14:46:52.601Z,5.70
2018-09-15T14:51:57.085Z,5.23
2018-09-15T14:57:01.908Z,5.53
2018-09-15T15:02:07.037Z,4.93
2018-09-15T15:07:11.700Z,4.83
2018-09-15T15:12:16.863Z,5.10
2018-09-15T15:17:21.549Z,4.20
2018-09-15T15:22:26.055Z,4.23
2018-09-15T15:27:30.716Z,4.10
2018-09-15T15:32:35.747Z,4.83
2018-09-15T15:37:40.331Z,4.43
2018-09-15T15:42:45.014Z,4.90
2018-09-15T15:47:49.696Z,5.87
2018-09-15T15:52:54.139Z,5.67
2018-09-15T15:57:59.205Z,5.97
2018-09-15T16:03:03.950Z,5.20
2018-09-15T16:08:08.396Z,6.27
2018-09-15T16:13:12.863Z,5.50
2018-09-15T16:18:17.518Z,6.07
2018-09-15T16:23:22.383Z,6.40
2018-09-15T16:28:26.993Z,6.80
2018-09-15T16:33:32.118Z,7.50
2018-09-15T16:38:36.783Z,7.27
2018-09-15T16:43:41.467Z,6.60
2018-09-15T16:48:46.911Z,6.63
2018-09-15T16:53:51.536Z,6.70
2018-09-15T16:58:55.972Z,6.30
2018-09-15T17:04:00.686Z,6.07
2018-09-15T17:09:07.990Z,4.43
2018-09-15T17:14:12.615Z,4.23
2018-09-15T17:19:17.219Z,3.50
2018-09-15T17:24:22.007Z,3.07
2018-09-15T17:29:26.669Z,2.80
2018-09-15T17:34:31.256Z,2.50
2018-09-15T17:39:36.001Z,2.30
2018-09-15T17:44:40.487Z,2.27
2018-09-15T17:49:45.192Z,2.03
2018-09-15T17:54:49.922Z,2.00
2018-09-15T17:59:54.419Z,1.83
2018-09-15T18:04:59.021Z,2.00
2018-09-15T18:10:04.711Z,1.70
2018-09-15T18:15:10.348Z,1.77
2018-09-15T18:20:26.817Z,1.90
2018-09-15T18:25:31.514Z,2.07
2018-09-15T18:30:36.220Z,1.90
2018-09-15T18:35:42.307Z,1.90
2018-09-15T18:40:46.783Z,1.93
2018-09-15T18:45:52.000Z,2.13
2018-09-15T18:50:57.260Z,2.10
2018-09-15T18:56:02.629Z,1.67
2018-09-15T19:01:08.809Z,2.00
2018-09-15T19:06:17.907Z,2.00
2018-09-15T19:11:23.018Z,2.33
2018-09-15T19:16:27.969Z,2.07
2018-09-15T19:21:33.542Z,2.30
2018-09-15T19:26:39.053Z,2.60
2018-09-15T19:31:44.886Z,2.30
2018-09-15T19:36:50.307Z,2.80
2018-09-15T19:41:55.143Z,2.50
2018-09-15T19:47:00.568Z,2.70
2018-09-15T19:52:08.802Z,2.57
2018-09-15T19:57:14.164Z,2.80
2018-09-15T20:02:19.603Z,3.30
2018-09-15T20:07:26.343Z,3.03
2018-09-15T20:12:31.695Z,2.90
2018-09-15T20:17:34.904Z,3.10
2018-09-15T20:22:40.269Z,3.07
2018-09-15T20:27:45.256Z,3.40
2018-09-15T20:32:50.622Z,3.57
2018-09-15T20:37:56.157Z,3.97
2018-09-15T20:43:01.830Z,3.90
2018-09-15T20:48:08.420Z,3.97
2018-09-15T20:53:13.681Z,4.33
2018-09-15T20:58:34.502Z,4.97
2018-09-15T21:03:41.305Z,4.97
2018-09-15T21:08:46.468Z,4.47
2018-09-15T21:13:51.624Z,5.20
2018-09-15T21:18:57.507Z,5.40
2018-09-15T21:24:02.356Z,5.60
2018-09-15T21:29:08.126Z,5.70
2018-09-15T21:34:14.814Z,5.67
2018-09-15T21:39:27.196Z,5.30
2018-09-15T21:44:37.774Z,6.17
2018-09-15T21:49:43.614Z,6.20
2018-09-15T22:00:34.587Z,6.70
2018-09-15T22:05:41.184Z,6.70
2018-09-15T22:10:47.362Z,6.90
2018-09-15T22:15:52.702Z,7.37
2018-09-15T22:20:58.127Z,7.17
2018-09-15T22:26:03.224Z,7.40
2018-09-15T22:31:08.619Z,7.70
2018-09-15T22:36:13.982Z,7.87
2018-09-15T22:41:26.431Z,8.03
2018-09-15T22:46:31.843Z,8.80
2018-09-15T22:51:38.465Z,7.70
2018-09-15T22:56:43.524Z,7.80
2018-09-15T23:01:49.094Z,7.73
2018-09-15T23:06:54.456Z,8.77
2018-09-15T23:11:59.622Z,8.47
2018-09-15T23:22:15.157Z,8.80
2018-09-15T23:27:20.522Z,9.07
2018-09-15T23:33:18.316Z,8.40
2018-09-15T23:39:04.643Z,9.63
2018-09-15T23:55:08.204Z,10.53
